createdAt,value
2023-01-31T00:00:12.778Z,93.20
2023-01-31T00:03:37.498Z,93.40
2023-01-31T00:07:01.863Z,93.00
2023-01-31T00:10:27.325Z,92.90
2023-01-31T00:13:53.396Z,92.90
2023-01-31T00:17:25.289Z,93.00
2023-01-31T00:20:48.876Z,93.10
2023-01-31T00:24:15.407Z,93.10
2023-01-31T00:27:41.288Z,93.00
2023-01-31T00:31:07.637Z,92.80
2023-01-31T00:34:31.920Z,92.80
2023-01-31T00:37:55.760Z,92.80
2023-01-31T00:41:20.237Z,93.00
2023-01-31T00:44:47.338Z,93.00
2023-01-31T00:48:12.250Z,93.10
2023-01-31T00:51:36.010Z,93.10
2023-01-31T00:55:02.111Z,93.20
2023-01-31T00:58:25.594Z,93.20
2023-01-31T01:01:55.734Z,93.30
2023-01-31T01:05:20.265Z,93.30
2023-01-31T01:08:45.909Z,93.40
2023-01-31T01:12:09.944Z,93.30
2023-01-31T01:15:39.061Z,93.30
2023-01-31T01:19:06.251Z,93.30
2023-01-31T01:22:29.999Z,93.20
2023-01-31T01:25:57.090Z,93.20
2023-01-31T01:29:22.758Z,93.20
2023-01-31T01:32:47.165Z,93.30
2023-01-31T01:36:16.098Z,93.20
2023-01-31T01:39:39.976Z,93.30
2023-01-31T01:43:04.173Z,93.30
2023-01-31T01:46:31.712Z,93.30
2023-01-31T01:49:59.801Z,93.20
2023-01-31T01:53:28.744Z,93.20
2023-01-31T01:57:01.211Z,93.10
2023-01-31T02:00:27.699Z,93.00
2023-01-31T02:03:53.778Z,92.80
2023-01-31T02:07:18.009Z,92.70
2023-01-31T02:10:50.643Z,92.60
2023-01-31T02:14:16.386Z,92.50
2023-01-31T02:17:44.491Z,92.50
2023-01-31T02:21:50.832Z,92.40
2023-01-31T02:25:44.099Z,92.50
2023-01-31T02:29:35.377Z,92.60
2023-01-31T02:33:07.936Z,92.60
2023-01-31T02:36:39.126Z,92.60
2023-01-31T02:40:09.511Z,92.70
2023-01-31T02:44:06.279Z,92.70
2023-01-31T02:47:41.138Z,92.90
2023-01-31T02:51:15.690Z,92.90
2023-01-31T02:54:56.262Z,92.90
2023-01-31T02:58:24.274Z,93.00
2023-01-31T03:01:52.281Z,93.10
2023-01-31T03:05:17.028Z,93.10
2023-01-31T03:08:45.896Z,93.20
2023-01-31T03:12:23.552Z,93.30
2023-01-31T03:16:12.315Z,93.40
2023-01-31T03:19:44.231Z,93.50
2023-01-31T03:23:15.400Z,93.40
2023-01-31T03:26:40.849Z,93.50
2023-01-31T03:30:10.894Z,93.50
2023-01-31T03:33:38.903Z,93.70
2023-01-31T03:37:15.542Z,93.80
2023-01-31T03:40:49.203Z,93.90
2023-01-31T03:44:20.613Z,94.10
2023-01-31T03:47:47.946Z,94.30
2023-01-31T03:51:19.479Z,94.30
2023-01-31T03:54:50.007Z,94.40
2023-01-31T03:58:19.660Z,94.50
2023-01-31T04:01:49.594Z,94.50
2023-01-31T04:05:18.703Z,94.60
2023-01-31T04:08:45.180Z,94.70
2023-01-31T04:12:12.728Z,94.80
2023-01-31T04:15:37.199Z,94.70
2023-01-31T04:19:03.194Z,94.70
2023-01-31T04:22:27.284Z,94.70
2023-01-31T04:25:50.849Z,94.70
2023-01-31T04:29:15.201Z,94.70
2023-01-31T04:32:39.152Z,94.60
2023-01-31T04:36:05.182Z,94.50
2023-01-31T04:39:29.175Z,94.40
2023-01-31T04:42:52.711Z,94.40
2023-01-31T04:46:17.167Z,94.40
2023-01-31T04:49:40.703Z,94.40
2023-01-31T04:53:06.286Z,94.30
2023-01-31T04:56:29.821Z,94.30
2023-01-31T04:59:56.362Z,94.20
2023-01-31T05:03:20.198Z,94.10
2023-01-31T05:06:46.568Z,94.00
2023-01-31T05:10:15.135Z,94.10
2023-01-31T05:13:41.524Z,93.90
2023-01-31T05:17:05.618Z,93.90
2023-01-31T05:20:32.491Z,93.90
2023-01-31T05:23:56.184Z,93.80
2023-01-31T05:27:21.575Z,93.50
2023-01-31T05:30:45.695Z,93.30
2023-01-31T05:34:14.439Z,93.20
2023-01-31T05:37:38.415Z,93.00
2023-01-31T05:41:02.305Z,93.00
2023-01-31T05:44:27.609Z,92.80
2023-01-31T05:47:51.817Z,92.80
2023-01-31T05:51:16.281Z,92.70
2023-01-31T05:54:40.206Z,92.60
2023-01-31T05:58:04.243Z,92.50
2023-01-31T06:01:30.911Z,92.40
2023-01-31T06:04:57.279Z,92.50
2023-01-31T06:08:20.910Z,92.50
2023-01-31T06:11:45.259Z,92.50
2023-01-31T06:15:57.099Z,92.30
2023-01-31T06:19:25.347Z,92.30
2023-01-31T06:22:48.947Z,92.30
2023-01-31T06:26:12.839Z,92.30
2023-01-31T06:29:37.331Z,92.30
2023-01-31T06:33:01.079Z,92.20
2023-01-31T06:36:26.110Z,92.20
2023-01-31T06:39:49.661Z,92.30
2023-01-31T06:43:13.201Z,92.30
2023-01-31T06:46:37.030Z,92.20
2023-01-31T06:50:00.583Z,92.20
2023-01-31T06:53:25.457Z,92.10
2023-01-31T06:56:49.277Z,92.10
2023-01-31T07:00:13.948Z,92.10
2023-01-31T07:03:37.530Z,92.10
2023-01-31T07:07:01.028Z,92.10
2023-01-31T07:10:26.326Z,92.00
2023-01-31T07:13:50.335Z,92.10
2023-01-31T07:17:13.829Z,92.00
2023-01-31T07:20:37.318Z,92.00
2023-01-31T07:24:00.813Z,92.10
2023-01-31T07:27:25.716Z,92.00
2023-01-31T07:30:49.316Z,92.00
2023-01-31T07:34:12.863Z,92.10
2023-01-31T07:37:36.732Z,92.00
2023-01-31T07:41:01.639Z,92.10
2023-01-31T07:44:26.523Z,92.00
2023-01-31T07:47:49.992Z,92.00
2023-01-31T07:51:13.624Z,92.00
2023-01-31T07:54:37.156Z,92.00
2023-01-31T07:58:00.638Z,92.00
2023-01-31T08:01:44.604Z,92.10
2023-01-31T08:05:09.602Z,91.90
2023-01-31T08:08:33.127Z,92.00
2023-01-31T08:11:56.634Z,92.10
2023-01-31T08:15:20.548Z,91.80
2023-01-31T08:18:46.284Z,91.90
2023-01-31T08:22:10.357Z,91.80
2023-01-31T08:25:33.827Z,91.70
2023-01-31T08:28:59.937Z,91.80
2023-01-31T08:32:23.482Z,91.70
2023-01-31T08:35:48.370Z,91.50
2023-01-31T08:39:12.144Z,91.40
2023-01-31T08:42:35.706Z,91.30
2023-01-31T08:45:59.232Z,91.40
2023-01-31T08:49:22.777Z,91.80
2023-01-31T08:53:01.443Z,92.10
2023-01-31T08:56:26.250Z,92.90
2023-01-31T08:59:49.856Z,93.40
2023-01-31T09:03:17.711Z,93.50
2023-01-31T09:06:41.204Z,93.90
2023-01-31T09:10:06.886Z,94.10
2023-01-31T09:13:31.589Z,94.50
2023-01-31T09:16:55.178Z,94.50
2023-01-31T09:20:18.962Z,94.50
2023-01-31T09:23:43.099Z,95.10
2023-01-31T09:27:07.980Z,95.50
2023-01-31T09:30:32.160Z,95.60
2023-01-31T09:33:56.070Z,95.80
2023-01-31T09:37:19.664Z,95.70
2023-01-31T09:40:43.690Z,96.20
2023-01-31T09:44:15.514Z,96.30
2023-01-31T09:47:42.814Z,96.50
2023-01-31T09:51:07.214Z,96.60
2023-01-31T09:54:36.376Z,96.70
2023-01-31T09:58:05.884Z,96.90
2023-01-31T10:01:46.051Z,97.00
2023-01-31T10:05:23.285Z,96.80
2023-01-31T10:08:55.426Z,96.80
2023-01-31T10:12:23.961Z,97.00
2023-01-31T10:15:51.946Z,96.80
2023-01-31T10:19:22.396Z,96.70
2023-01-31T10:22:49.217Z,96.60
2023-01-31T10:26:17.263Z,96.80
2023-01-31T10:29:45.008Z,96.60
2023-01-31T10:33:20.870Z,96.60
2023-01-31T10:36:50.721Z,96.50
2023-01-31T10:40:16.707Z,96.50
2023-01-31T10:43:46.838Z,96.60
2023-01-31T10:47:14.809Z,96.50
2023-01-31T10:50:49.665Z,96.20
2023-01-31T10:54:24.389Z,96.20
2023-01-31T10:57:48.211Z,96.10
2023-01-31T11:01:14.549Z,96.10
2023-01-31T11:04:42.226Z,96.10
2023-01-31T11:08:21.424Z,95.90
2023-01-31T11:11:57.619Z,95.80
2023-01-31T11:15:24.310Z,95.80
2023-01-31T11:18:50.467Z,95.60
2023-01-31T11:22:23.878Z,95.60
2023-01-31T11:25:50.497Z,95.50
2023-01-31T11:29:20.992Z,95.60
2023-01-31T11:32:45.556Z,95.90
2023-01-31T11:36:10.446Z,95.90
2023-01-31T11:39:38.127Z,95.70
2023-01-31T11:43:03.615Z,95.70
2023-01-31T11:46:28.550Z,95.70
2023-01-31T11:49:52.146Z,95.60
2023-01-31T11:53:19.807Z,95.70
2023-01-31T11:56:46.016Z,95.60
2023-01-31T12:00:23.045Z,95.60
2023-01-31T12:04:01.676Z,95.50
2023-01-31T12:07:28.981Z,95.50
2023-01-31T12:10:52.542Z,95.50
2023-01-31T12:14:19.237Z,95.40
2023-01-31T12:17:46.762Z,95.50
2023-01-31T12:21:15.677Z,95.70
2023-01-31T12:24:53.259Z,95.90
2023-01-31T12:28:32.012Z,95.80
2023-01-31T12:32:10.386Z,95.70
2023-01-31T12:35:49.307Z,95.80
2023-01-31T12:39:33.067Z,95.90
2023-01-31T12:42:59.804Z,95.90
2023-01-31T12:46:31.734Z,95.80
2023-01-31T12:50:02.799Z,96.00
2023-01-31T12:53:49.055Z,96.60
2023-01-31T12:57:30.108Z,96.60
2023-01-31T13:00:59.869Z,97.10
2023-01-31T13:04:34.585Z,97.40
2023-01-31T13:08:03.309Z,97.70
2023-01-31T13:11:32.134Z,97.80
2023-01-31T13:15:04.516Z,97.90
2023-01-31T13:18:30.224Z,98.00
2023-01-31T13:21:58.238Z,98.50
2023-01-31T13:25:24.455Z,98.40
2023-01-31T13:28:52.868Z,98.60
2023-01-31T13:32:26.648Z,98.70
2023-01-31T13:35:58.699Z,98.80
2023-01-31T13:39:25.453Z,99.00
2023-01-31T13:42:50.657Z,98.90
2023-01-31T13:46:19.080Z,99.00
2023-01-31T13:49:48.220Z,99.10
2023-01-31T13:53:17.259Z,99.20
2023-01-31T13:56:42.671Z,99.20
2023-01-31T14:00:10.950Z,99.10
2023-01-31T14:04:14.938Z,99.10
2023-01-31T14:07:39.872Z,99.20
2023-01-31T14:11:04.964Z,99.00
2023-01-31T14:14:45.331Z,99.10
2023-01-31T14:18:09.328Z,99.10
2023-01-31T14:21:54.835Z,99.00
2023-01-31T14:25:42.709Z,99.00
2023-01-31T14:29:10.532Z,99.00
2023-01-31T14:32:37.279Z,98.90
2023-01-31T14:36:37.800Z,98.90
2023-01-31T14:40:16.868Z,99.20
2023-01-31T14:43:58.215Z,98.80
2023-01-31T14:47:36.766Z,98.80
2023-01-31T14:51:24.824Z,98.80
2023-01-31T14:55:01.475Z,98.70
2023-01-31T14:58:28.035Z,98.60
2023-01-31T15:01:53.072Z,98.70
2023-01-31T15:05:20.514Z,98.70
2023-01-31T15:08:46.993Z,98.60
2023-01-31T15:12:43.794Z,98.60
2023-01-31T15:16:11.900Z,98.60
2023-01-31T15:19:45.296Z,98.60
2023-01-31T15:23:21.342Z,98.50
2023-01-31T15:26:46.898Z,98.50
2023-01-31T15:30:18.263Z,98.50
2023-01-31T15:33:45.643Z,98.40
2023-01-31T15:37:20.187Z,98.40
2023-01-31T15:40:43.729Z,98.30
2023-01-31T15:44:18.588Z,98.20
2023-01-31T15:47:42.722Z,98.10
2023-01-31T15:51:06.641Z,98.20
2023-01-31T15:54:31.569Z,98.20
2023-01-31T15:57:57.806Z,98.40
2023-01-31T16:01:23.213Z,98.40
2023-01-31T16:04:48.735Z,98.30
2023-01-31T16:08:21.913Z,98.30
2023-01-31T16:11:46.990Z,98.30
2023-01-31T16:15:19.962Z,98.30
2023-01-31T16:18:49.110Z,98.30
2023-01-31T16:22:27.192Z,98.20
2023-01-31T16:25:55.655Z,98.10
2023-01-31T16:29:23.520Z,98.10
2023-01-31T16:32:51.350Z,98.10
2023-01-31T16:36:18.443Z,98.20
2023-01-31T16:39:46.544Z,98.20
2023-01-31T16:43:12.191Z,98.30
2023-01-31T16:46:41.955Z,98.40
2023-01-31T16:50:41.753Z,98.40
2023-01-31T16:54:24.103Z,98.50
2023-01-31T16:57:48.279Z,98.60
2023-01-31T17:01:15.306Z,98.70
2023-01-31T17:04:42.453Z,98.70
2023-01-31T17:08:06.602Z,98.70
2023-01-31T17:11:42.244Z,98.70
2023-01-31T17:15:14.853Z,98.70
2023-01-31T17:18:38.420Z,98.60
2023-01-31T17:22:05.221Z,98.70
2023-01-31T17:25:32.674Z,98.70
2023-01-31T17:29:01.817Z,98.60
2023-01-31T17:32:25.842Z,98.30
2023-01-31T17:35:49.749Z,98.10
2023-01-31T17:39:14.868Z,98.10
2023-01-31T17:42:38.584Z,97.80
2023-01-31T17:46:02.117Z,97.90
2023-01-31T17:49:25.722Z,97.90
2023-01-31T17:52:49.927Z,97.90
2023-01-31T17:56:14.905Z,98.20
2023-01-31T17:59:38.554Z,97.70
2023-01-31T18:03:02.135Z,97.70
2023-01-31T18:06:25.653Z,97.30
2023-01-31T18:09:49.202Z,97.10
2023-01-31T18:13:14.210Z,96.90
2023-01-31T18:16:37.729Z,96.90
2023-01-31T18:20:01.298Z,96.70
2023-01-31T18:23:25.150Z,96.70
2023-01-31T18:26:49.213Z,96.30
2023-01-31T18:30:15.015Z,96.10
2023-01-31T18:33:38.713Z,96.30
2023-01-31T18:37:02.685Z,96.30
2023-01-31T18:40:26.516Z,96.30
2023-01-31T18:43:50.549Z,96.10
2023-01-31T18:47:16.861Z,96.00
2023-01-31T18:50:40.500Z,96.00
2023-01-31T18:54:04.189Z,96.10
2023-01-31T18:57:27.796Z,96.00
2023-01-31T19:00:51.521Z,95.80
2023-01-31T19:04:16.481Z,95.60
2023-01-31T19:07:40.177Z,95.30
2023-01-31T19:11:06.279Z,94.90
2023-01-31T19:14:30.160Z,94.70
2023-01-31T19:17:56.629Z,94.60
2023-01-31T19:21:25.142Z,94.50
2023-01-31T19:24:49.134Z,94.40
2023-01-31T19:28:13.079Z,94.50
2023-01-31T19:31:36.691Z,94.70
2023-01-31T19:35:00.244Z,94.80
2023-01-31T19:38:25.239Z,94.90
2023-01-31T19:41:48.736Z,95.10
2023-01-31T19:45:12.787Z,95.10
2023-01-31T19:48:45.517Z,94.70
2023-01-31T19:52:09.357Z,94.70
2023-01-31T19:55:34.813Z,94.20
2023-01-31T19:58:58.564Z,93.90
2023-01-31T20:02:22.105Z,93.60
2023-01-31T20:05:45.855Z,93.50
2023-01-31T20:09:15.851Z,93.30
2023-01-31T20:12:40.751Z,93.10
2023-01-31T20:16:06.968Z,92.90
2023-01-31T20:19:30.571Z,92.80
2023-01-31T20:22:54.218Z,92.60
2023-01-31T20:26:19.626Z,92.50
2023-01-31T20:29:44.747Z,92.50
2023-01-31T20:33:08.265Z,92.40
2023-01-31T20:36:31.839Z,92.40
2023-01-31T20:39:55.452Z,92.10
2023-01-31T20:43:19.340Z,92.10
2023-01-31T20:46:44.414Z,92.00
2023-01-31T20:50:08.523Z,91.90
2023-01-31T20:53:32.529Z,92.00
2023-01-31T20:56:56.215Z,92.00
2023-01-31T21:00:21.770Z,92.10
2023-01-31T21:03:46.856Z,92.00
2023-01-31T21:07:10.393Z,92.20
2023-01-31T21:10:34.008Z,92.20
2023-01-31T21:13:57.541Z,92.30
2023-01-31T21:17:27.604Z,92.40
2023-01-31T21:20:59.270Z,92.60
2023-01-31T21:24:22.829Z,92.70
2023-01-31T21:27:46.401Z,92.90
2023-01-31T21:31:12.521Z,92.90
2023-01-31T21:34:36.296Z,92.90
2023-01-31T21:38:01.378Z,93.00
2023-01-31T21:41:42.222Z,93.10
2023-01-31T21:45:06.576Z,93.20
2023-01-31T21:48:30.118Z,93.10
2023-01-31T21:51:53.701Z,93.10
2023-01-31T21:55:19.084Z,93.00
2023-01-31T21:58:43.470Z,93.00
2023-01-31T22:02:07.276Z,92.90
2023-01-31T22:05:30.806Z,92.90
2023-01-31T22:08:56.821Z,92.80
2023-01-31T22:12:21.833Z,92.80
2023-01-31T22:15:45.445Z,92.70
2023-01-31T22:19:11.158Z,92.70
2023-01-31T22:22:35.442Z,92.60
2023-01-31T22:26:03.955Z,92.60
2023-01-31T22:29:31.271Z,92.50
2023-01-31T22:32:55.331Z,92.50
2023-01-31T22:36:22.099Z,92.60
2023-01-31T22:39:48.257Z,92.60
2023-01-31T22:43:13.752Z,92.60
2023-01-31T22:46:38.957Z,92.60
2023-01-31T22:50:04.110Z,92.60
2023-01-31T22:53:29.898Z,92.60
2023-01-31T22:56:54.382Z,92.70
2023-01-31T23:00:19.323Z,92.60
2023-01-31T23:03:45.449Z,93.10
2023-01-31T23:07:10.552Z,92.70
2023-01-31T23:10:34.425Z,92.70
2023-01-31T23:13:59.350Z,92.70
2023-01-31T23:17:38.936Z,92.70
2023-01-31T23:21:08.822Z,92.70
2023-01-31T23:24:32.430Z,92.70
2023-01-31T23:27:57.100Z,92.70
2023-01-31T23:31:20.735Z,92.70
2023-01-31T23:34:44.288Z,92.80
2023-01-31T23:38:09.760Z,92.70
2023-01-31T23:41:35.963Z,93.10
2023-01-31T23:45:00.940Z,92.80
2023-01-31T23:48:25.459Z,92.70
2023-01-31T23:51:49.401Z,92.90
2023-01-31T23:55:15.263Z,92.60
2023-01-31T23:58:38.777Z,92.60
